createdAt,value
2023-01-19T00:00:00.125Z,98270.00
2023-01-19T00:02:26.620Z,98269.53
2023-01-19T00:04:53.027Z,98276.81
2023-01-19T00:07:19.445Z,98276.16
2023-01-19T00:09:45.944Z,98270.28
2023-01-19T00:12:12.406Z,98281.06
2023-01-19T00:14:38.994Z,98281.31
2023-01-19T00:17:05.475Z,98276.50
2023-01-19T00:19:32.059Z,98268.44
2023-01-19T00:21:58.440Z,98280.00
2023-01-19T00:24:24.898Z,98277.19
2023-01-19T00:26:54.070Z,98279.19
2023-01-19T00:29:20.480Z,98275.91
2023-01-19T00:31:46.974Z,98279.63
2023-01-19T00:34:13.420Z,98281.41
2023-01-19T00:36:39.887Z,98283.91
2023-01-19T00:39:06.394Z,98276.34
2023-01-19T00:41:51.375Z,98285.78
2023-01-19T00:44:17.789Z,98283.63
2023-01-19T00:46:44.446Z,98279.69
2023-01-19T00:49:11.177Z,98282.19
2023-01-19T00:51:38.160Z,98280.78
2023-01-19T00:54:10.288Z,98277.47
2023-01-19T00:56:37.406Z,98283.41
2023-01-19T00:59:05.016Z,98283.00
2023-01-19T01:01:46.028Z,98291.00
2023-01-19T01:04:13.551Z,98293.97
2023-01-19T01:06:40.097Z,98297.50
2023-01-19T01:09:11.963Z,98296.19
2023-01-19T01:11:42.714Z,98292.91
2023-01-19T01:14:10.994Z,98303.44
2023-01-19T01:16:37.561Z,98297.63
2023-01-19T01:19:06.689Z,98297.94
2023-01-19T01:21:34.612Z,98298.06
2023-01-19T01:24:01.744Z,98290.72
2023-01-19T01:26:28.591Z,98290.94
2023-01-19T01:28:55.040Z,98297.97
2023-01-19T01:31:21.442Z,98293.16
2023-01-19T01:33:47.923Z,98293.59
2023-01-19T01:36:14.671Z,98298.53
2023-01-19T01:38:41.606Z,98308.31
2023-01-19T01:41:08.745Z,98309.81
2023-01-19T01:43:58.237Z,98315.97
2023-01-19T01:46:25.920Z,98314.25
2023-01-19T01:49:06.077Z,98310.06
2023-01-19T01:51:52.906Z,98307.19
2023-01-19T01:54:29.453Z,98305.34
2023-01-19T01:57:00.470Z,98299.31
2023-01-19T01:59:34.624Z,98307.19
2023-01-19T02:02:33.792Z,98301.09
2023-01-19T02:05:08.197Z,98303.03
2023-01-19T02:08:05.451Z,98308.09
2023-01-19T02:10:51.074Z,98306.56
2023-01-19T02:13:21.374Z,98315.44
2023-01-19T02:16:08.142Z,98306.13
2023-01-19T02:18:35.638Z,98317.06
2023-01-19T02:21:09.435Z,98318.38
2023-01-19T02:23:38.936Z,98320.16
2023-01-19T02:26:07.154Z,98324.13
2023-01-19T02:28:33.685Z,98323.56
2023-01-19T02:31:00.238Z,98328.50
2023-01-19T02:33:27.054Z,98330.94
2023-01-19T02:35:54.683Z,98328.06
2023-01-19T02:38:21.341Z,98333.00
2023-01-19T02:40:48.640Z,98338.16
2023-01-19T02:43:16.357Z,98336.72
2023-01-19T02:45:43.132Z,98334.78
2023-01-19T02:48:09.605Z,98331.38
2023-01-19T02:50:38.700Z,98329.81
2023-01-19T02:53:12.966Z,98333.09
2023-01-19T02:55:40.232Z,98326.09
2023-01-19T02:58:09.892Z,98324.34
2023-01-19T03:00:44.707Z,98334.66
2023-01-19T03:03:34.612Z,98336.41
2023-01-19T03:06:09.207Z,98328.06
2023-01-19T03:08:44.241Z,98335.53
2023-01-19T03:11:14.822Z,98337.81
2023-01-19T03:13:44.077Z,98338.38
2023-01-19T03:16:31.984Z,98335.75
2023-01-19T03:19:07.934Z,98339.25
2023-01-19T03:21:36.230Z,98342.53
2023-01-19T03:24:04.863Z,98339.25
2023-01-19T03:26:35.740Z,98336.72
2023-01-19T03:29:03.185Z,98336.94
2023-01-19T03:31:31.863Z,98339.25
2023-01-19T03:34:02.467Z,98337.38
2023-01-19T03:36:41.539Z,98336.41
2023-01-19T03:39:09.657Z,98335.84
2023-01-19T03:41:37.594Z,98327.84
2023-01-19T03:44:06.384Z,98327.19
2023-01-19T03:46:33.435Z,98331.78
2023-01-19T03:49:00.252Z,98336.19
2023-01-19T03:51:26.799Z,98337.63
2023-01-19T03:53:53.240Z,98338.81
2023-01-19T03:56:24.875Z,98340.44
2023-01-19T03:58:51.824Z,98334.63
2023-01-19T04:01:22.757Z,98350.13
2023-01-19T04:03:50.490Z,98345.84
2023-01-19T04:06:17.688Z,98346.25
2023-01-19T04:08:44.272Z,98347.81
2023-01-19T04:11:11.153Z,98345.84
2023-01-19T04:13:37.597Z,98349.13
2023-01-19T04:16:04.650Z,98349.31
2023-01-19T04:18:33.907Z,98348.56
2023-01-19T04:21:06.205Z,98343.31
2023-01-19T04:23:33.634Z,98346.59
2023-01-19T04:26:01.367Z,98344.63
2023-01-19T04:28:27.833Z,98342.97
2023-01-19T04:30:54.604Z,98345.50
2023-01-19T04:33:21.442Z,98341.31
2023-01-19T04:35:49.341Z,98342.97
2023-01-19T04:38:15.907Z,98341.13
2023-01-19T04:40:42.369Z,98348.91
2023-01-19T04:43:09.154Z,98341.44
2023-01-19T04:45:36.759Z,98343.75
2023-01-19T04:48:06.793Z,98345.06
2023-01-19T04:50:33.256Z,98348.22
2023-01-19T04:53:00.828Z,98349.78
2023-01-19T04:55:28.004Z,98349.78
2023-01-19T04:57:54.591Z,98341.00
2023-01-19T05:00:21.564Z,98336.59
2023-01-19T05:02:48.153Z,98330.88
2023-01-19T05:05:14.879Z,98337.03
2023-01-19T05:07:42.883Z,98339.13
2023-01-19T05:10:10.149Z,98335.59
2023-01-19T05:12:36.888Z,98339.44
2023-01-19T05:15:04.260Z,98337.03
2023-01-19T05:17:30.860Z,98335.38
2023-01-19T05:19:57.295Z,98342.41
2023-01-19T05:22:24.454Z,98344.28
2023-01-19T05:24:50.860Z,98345.81
2023-01-19T05:27:17.357Z,98341.88
2023-01-19T05:29:43.800Z,98343.50
2023-01-19T05:32:10.281Z,98348.44
2023-01-19T05:34:36.932Z,98344.28
2023-01-19T05:37:03.360Z,98349.53
2023-01-19T05:39:30.269Z,98339.56
2023-01-19T05:41:56.673Z,98346.25
2023-01-19T05:44:23.082Z,98351.31
2023-01-19T05:46:49.567Z,98352.84
2023-01-19T05:49:16.156Z,98351.31
2023-01-19T05:51:45.280Z,98345.16
2023-01-19T05:54:14.586Z,98348.69
2023-01-19T05:56:41.473Z,98349.78
2023-01-19T05:59:08.148Z,98354.16
2023-01-19T06:01:39.855Z,98356.56
2023-01-19T06:04:06.643Z,98364.59
2023-01-19T06:06:33.081Z,98372.59
2023-01-19T06:08:59.609Z,98369.28
2023-01-19T06:11:26.240Z,98373.47
2023-01-19T06:13:52.760Z,98376.09
2023-01-19T06:16:19.477Z,98381.38
2023-01-19T06:18:46.051Z,98388.38
2023-01-19T06:21:14.153Z,98384.09
2023-01-19T06:23:40.867Z,98385.78
2023-01-19T06:26:07.309Z,98396.53
2023-01-19T06:28:33.774Z,98396.31
2023-01-19T06:31:00.319Z,98395.56
2023-01-19T06:33:27.891Z,98399.38
2023-01-19T06:35:54.747Z,98396.78
2023-01-19T06:38:21.226Z,98391.59
2023-01-19T06:41:03.196Z,98407.53
2023-01-19T06:43:29.702Z,98412.59
2023-01-19T06:45:56.292Z,98409.81
2023-01-19T06:48:23.316Z,98413.22
2023-01-19T06:50:50.071Z,98419.47
2023-01-19T06:53:17.036Z,98415.44
2023-01-19T06:55:44.151Z,98421.78
2023-01-19T06:58:11.251Z,98427.63
2023-01-19T07:00:38.161Z,98421.25
2023-01-19T07:03:08.089Z,98421.78
2023-01-19T07:05:35.703Z,98425.31
2023-01-19T07:08:02.139Z,98426.28
2023-01-19T07:11:25.347Z,98429.16
2023-01-19T07:13:15.084Z,98432.09
2023-01-19T07:15:42.000Z,98430.69
2023-01-19T07:18:09.719Z,98431.56
2023-01-19T07:20:37.160Z,98441.13
2023-01-19T07:23:04.012Z,98444.31
2023-01-19T07:25:30.665Z,98451.00
2023-01-19T07:28:01.620Z,98448.16
2023-01-19T07:30:28.583Z,98451.78
2023-01-19T07:32:57.324Z,98455.19
2023-01-19T07:35:26.990Z,98458.47
2023-01-19T07:37:53.475Z,98455.31
2023-01-19T07:40:20.000Z,98460.44
2023-01-19T07:42:48.547Z,98466.38
2023-01-19T07:45:16.815Z,98463.31
2023-01-19T07:47:44.548Z,98463.19
2023-01-19T07:50:12.681Z,98471.44
2023-01-19T07:52:39.203Z,98471.66
2023-01-19T07:55:06.231Z,98470.78
2023-01-19T07:57:32.621Z,98469.25
2023-01-19T07:59:59.387Z,98473.41
2023-01-19T08:02:25.834Z,98478.03
2023-01-19T08:04:52.424Z,98475.63
2023-01-19T08:07:18.942Z,98477.81
2023-01-19T08:09:45.364Z,98483.75
2023-01-19T08:12:11.772Z,98480.00
2023-01-19T08:14:38.213Z,98479.91
2023-01-19T08:17:04.655Z,98476.59
2023-01-19T08:19:31.035Z,98477.13
2023-01-19T08:21:58.899Z,98479.25
2023-01-19T08:24:28.480Z,98474.94
2023-01-19T08:27:02.019Z,98482.09
2023-01-19T08:29:30.656Z,98485.06
2023-01-19T08:31:59.922Z,98488.91
2023-01-19T08:34:27.062Z,98481.66
2023-01-19T08:36:53.971Z,98497.34
2023-01-19T08:39:20.498Z,98493.19
2023-01-19T08:41:47.015Z,98498.53
2023-01-19T08:44:13.456Z,98499.34
2023-01-19T08:46:39.991Z,98496.56
2023-01-19T08:49:06.479Z,98492.09
2023-01-19T08:51:32.996Z,98480.63
2023-01-19T08:53:59.435Z,98487.88
2023-01-19T08:56:26.108Z,98492.50
2023-01-19T08:59:07.630Z,98492.06
2023-01-19T09:01:37.047Z,98489.84
2023-01-19T09:04:03.604Z,98503.25
2023-01-19T09:06:30.086Z,98498.41
2023-01-19T09:08:57.599Z,98507.66
2023-01-19T09:11:24.119Z,98508.44
2023-01-19T09:13:50.755Z,98509.41
2023-01-19T09:16:17.538Z,98511.06
2023-01-19T09:18:45.757Z,98516.09
2023-01-19T09:21:13.776Z,98521.94
2023-01-19T09:23:40.392Z,98527.19
2023-01-19T09:26:06.879Z,98519.81
2023-01-19T09:28:33.642Z,98523.44
2023-01-19T09:31:04.906Z,98516.94
2023-01-19T09:33:31.435Z,98523.69
2023-01-19T09:35:57.883Z,98525.22
2023-01-19T09:38:25.811Z,98531.28
2023-01-19T09:40:54.834Z,98524.44
2023-01-19T09:43:33.369Z,98528.75
2023-01-19T09:46:02.516Z,98530.47
2023-01-19T09:48:32.796Z,98529.91
2023-01-19T09:51:02.838Z,98527.19
2023-01-19T09:53:50.963Z,98541.25
2023-01-19T09:56:19.421Z,98542.34
2023-01-19T09:58:46.842Z,98547.63
2023-01-19T10:01:16.279Z,98545.09
2023-01-19T10:03:42.839Z,98545.16
2023-01-19T10:06:11.907Z,98550.44
2023-01-19T10:08:47.572Z,98548.91
2023-01-19T10:11:26.311Z,98546.13
2023-01-19T10:13:54.146Z,98552.19
2023-01-19T10:16:41.320Z,98552.94
2023-01-19T10:19:33.682Z,98557.44
2023-01-19T10:22:04.867Z,98554.16
2023-01-19T10:24:40.378Z,98555.59
2023-01-19T10:27:20.731Z,98558.91
2023-01-19T10:29:47.489Z,98563.41
2023-01-19T10:32:19.966Z,98555.81
2023-01-19T10:34:47.215Z,98549.50
2023-01-19T10:37:30.878Z,98548.22
2023-01-19T10:40:01.686Z,98552.81
2023-01-19T10:42:29.974Z,98550.59
2023-01-19T10:44:56.813Z,98548.34
2023-01-19T10:47:32.394Z,98546.13
2023-01-19T10:49:58.870Z,98545.94
2023-01-19T10:52:36.757Z,98542.84
2023-01-19T10:55:04.895Z,98543.44
2023-01-19T10:57:34.433Z,98533.72
2023-01-19T11:00:00.884Z,98529.28
2023-01-19T11:02:29.825Z,98525.38
2023-01-19T11:04:58.746Z,98526.66
2023-01-19T11:07:29.209Z,98531.66
2023-01-19T11:10:21.232Z,98529.69
2023-01-19T11:12:54.128Z,98532.72
2023-01-19T11:15:25.825Z,98535.34
2023-01-19T11:17:53.452Z,98530.28
2023-01-19T11:20:28.543Z,98530.97
2023-01-19T11:23:19.870Z,98532.03
2023-01-19T11:25:48.695Z,98528.94
2023-01-19T11:28:36.734Z,98523.69
2023-01-19T11:31:17.292Z,98533.25
2023-01-19T11:33:47.075Z,98524.44
2023-01-19T11:36:19.040Z,98527.66
2023-01-19T11:38:50.263Z,98526.00
2023-01-19T11:41:22.648Z,98526.78
2023-01-19T11:43:53.923Z,98521.69
2023-01-19T11:46:21.482Z,98519.75
2023-01-19T11:49:14.045Z,98522.47
2023-01-19T11:51:52.399Z,98521.13
2023-01-19T11:54:23.811Z,98512.94
2023-01-19T11:56:52.184Z,98514.69
2023-01-19T11:59:19.293Z,98513.72
2023-01-19T12:01:54.693Z,98505.91
2023-01-19T12:04:29.801Z,98506.88
2023-01-19T12:06:57.134Z,98499.69
2023-01-19T12:09:26.362Z,98504.94
2023-01-19T12:12:06.346Z,98503.00
2023-01-19T12:14:50.498Z,98512.47
2023-01-19T12:17:28.334Z,98509.81
2023-01-19T12:20:01.163Z,98508.28
2023-01-19T12:22:29.043Z,98503.22
2023-01-19T12:25:13.942Z,98492.28
2023-01-19T12:27:44.262Z,98490.63
2023-01-19T12:30:21.152Z,98501.63
2023-01-19T12:32:47.909Z,98495.03
2023-01-19T12:35:53.381Z,98497.75
2023-01-19T12:38:55.764Z,98494.34
2023-01-19T12:41:30.588Z,98489.34
2023-01-19T12:44:12.313Z,98497.19
2023-01-19T12:46:39.045Z,98485.47
2023-01-19T12:49:09.456Z,98483.91
2023-01-19T12:51:35.979Z,98488.22
2023-01-19T12:54:06.852Z,98482.38
2023-01-19T12:56:35.015Z,98478.94
2023-01-19T12:59:01.609Z,98483.03
2023-01-19T13:01:28.186Z,98481.97
2023-01-19T13:04:01.967Z,98485.19
2023-01-19T13:06:49.729Z,98490.16
2023-01-19T13:09:35.675Z,98483.44
2023-01-19T13:12:14.279Z,98487.72
2023-01-19T13:14:44.324Z,98486.81
2023-01-19T13:17:18.757Z,98479.81
2023-01-19T13:19:49.589Z,98485.09
2023-01-19T13:22:50.049Z,98485.97
2023-01-19T13:25:35.056Z,98480.28
2023-01-19T13:28:02.358Z,98483.91
2023-01-19T13:30:29.745Z,98480.22
2023-01-19T13:33:04.598Z,98482.06
2023-01-19T13:35:31.137Z,98478.44
2023-01-19T13:37:58.436Z,98486.81
2023-01-19T13:40:32.625Z,98490.34
2023-01-19T13:42:59.108Z,98480.03
2023-01-19T13:45:25.408Z,98479.72
2023-01-19T13:47:52.589Z,98478.19
2023-01-19T13:50:21.688Z,98481.50
2023-01-19T13:52:50.753Z,98475.34
2023-01-19T13:55:18.629Z,98479.66
2023-01-19T13:57:45.955Z,98478.66
2023-01-19T14:00:12.735Z,98485.38
2023-01-19T14:02:40.380Z,98485.66
2023-01-19T14:05:34.244Z,98480.69
2023-01-19T14:08:11.242Z,98487.31
2023-01-19T14:10:47.730Z,98490.75
2023-01-19T14:13:19.712Z,98483.91
2023-01-19T14:15:48.158Z,98487.31
2023-01-19T14:18:17.510Z,98490.34
2023-01-19T14:20:56.072Z,98494.66
2023-01-19T14:23:48.423Z,98495.22
2023-01-19T14:26:45.020Z,98486.38
2023-01-19T14:29:25.861Z,98492.97
2023-01-19T14:32:09.338Z,98491.81
2023-01-19T14:34:39.013Z,98486.63
2023-01-19T14:37:22.592Z,98488.59
2023-01-19T14:39:51.827Z,98482.19
2023-01-19T14:42:53.634Z,98487.06
2023-01-19T14:45:28.892Z,98480.22
2023-01-19T14:48:00.197Z,98490.56
2023-01-19T14:50:30.190Z,98493.84
2023-01-19T14:53:00.125Z,98492.69
2023-01-19T14:55:38.262Z,98492.50
2023-01-19T14:58:12.216Z,98488.69
2023-01-19T15:00:39.858Z,98497.19
2023-01-19T15:03:06.303Z,98495.81
2023-01-19T15:05:33.405Z,98506.16
2023-01-19T15:08:02.013Z,98493.38
2023-01-19T15:10:28.928Z,98495.22
2023-01-19T15:12:55.929Z,98503.41
2023-01-19T15:15:35.113Z,98501.63
2023-01-19T15:18:02.966Z,98501.63
2023-01-19T15:20:29.440Z,98504.47
2023-01-19T15:22:55.850Z,98504.75
2023-01-19T15:25:27.640Z,98503.00
2023-01-19T15:27:57.881Z,98509.16
2023-01-19T15:30:45.394Z,98504.84
2023-01-19T15:33:32.903Z,98509.03
2023-01-19T15:35:59.360Z,98511.97
2023-01-19T15:38:26.537Z,98512.25
2023-01-19T15:40:53.187Z,98511.38
2023-01-19T15:43:21.017Z,98508.34
2023-01-19T15:45:54.659Z,98507.09
2023-01-19T15:48:22.356Z,98515.31
2023-01-19T15:50:48.815Z,98511.88
2023-01-19T15:53:20.153Z,98514.81
2023-01-19T15:55:51.648Z,98507.31
2023-01-19T15:58:20.453Z,98513.06
2023-01-19T16:00:54.830Z,98509.94
2023-01-19T16:03:21.375Z,98504.56
2023-01-19T16:05:47.812Z,98508.88
2023-01-19T16:08:14.229Z,98509.06
2023-01-19T16:10:41.786Z,98510.44
2023-01-19T16:13:09.451Z,98511.59
2023-01-19T16:15:37.162Z,98516.47
2023-01-19T16:18:04.533Z,98518.59
2023-01-19T16:20:31.344Z,98515.75
2023-01-19T16:23:06.245Z,98518.22
2023-01-19T16:25:39.898Z,98521.31
2023-01-19T16:28:06.622Z,98524.38
2023-01-19T16:30:33.080Z,98529.28
2023-01-19T16:32:59.524Z,98527.19
2023-01-19T16:35:25.974Z,98529.66
2023-01-19T16:37:52.384Z,98530.81
2023-01-19T16:40:20.242Z,98526.91
2023-01-19T16:42:47.280Z,98530.63
2023-01-19T16:45:13.821Z,98532.91
2023-01-19T16:47:40.273Z,98539.63
2023-01-19T16:50:07.237Z,98536.53
2023-01-19T16:52:33.710Z,98525.63
2023-01-19T16:55:00.108Z,98537.47
2023-01-19T16:57:26.526Z,98532.78
2023-01-19T16:59:52.899Z,98538.28
2023-01-19T17:02:19.317Z,98542.47
2023-01-19T17:04:46.132Z,98530.09
2023-01-19T17:07:12.525Z,98543.06
2023-01-19T17:09:39.123Z,98538.47
2023-01-19T17:12:07.391Z,98541.78
2023-01-19T17:14:33.855Z,98539.25
2023-01-19T17:17:03.581Z,98547.06
2023-01-19T17:19:30.075Z,98541.22
2023-01-19T17:21:56.497Z,98548.88
2023-01-19T17:24:22.945Z,98550.69
2023-01-19T17:26:49.446Z,98549.44
2023-01-19T17:29:16.575Z,98556.38
2023-01-19T17:31:43.433Z,98554.63
2023-01-19T17:34:10.740Z,98550.13
2023-01-19T17:36:37.863Z,98551.53
2023-01-19T17:39:08.202Z,98545.81
2023-01-19T17:41:35.347Z,98558.66
2023-01-19T17:44:03.286Z,98562.81
2023-01-19T17:46:30.075Z,98560.22
2023-01-19T17:48:58.752Z,98560.81
2023-01-19T17:51:25.810Z,98564.34
2023-01-19T17:53:53.271Z,98571.59
2023-01-19T17:56:22.144Z,98570.75
2023-01-19T17:58:49.227Z,98566.56
2023-01-19T18:01:15.676Z,98569.19
2023-01-19T18:03:42.964Z,98567.34
2023-01-19T18:06:09.765Z,98565.13
2023-01-19T18:08:42.629Z,98569.63
2023-01-19T18:11:09.334Z,98576.41
2023-01-19T18:13:36.564Z,98572.72
2023-01-19T18:16:06.085Z,98574.47
2023-01-19T18:18:33.424Z,98575.25
2023-01-19T18:21:05.602Z,98573.69
2023-01-19T18:23:32.023Z,98573.69
2023-01-19T18:26:04.477Z,98573.59
2023-01-19T18:28:32.075Z,98578.66
2023-01-19T18:30:58.696Z,98580.88
2023-01-19T18:33:25.612Z,98577.56
2023-01-19T18:35:52.138Z,98572.72
2023-01-19T18:38:18.670Z,98570.25
2023-01-19T18:40:45.448Z,98567.84
2023-01-19T18:43:12.113Z,98574.69
2023-01-19T18:45:39.883Z,98567.84
2023-01-19T18:48:06.477Z,98574.38
2023-01-19T18:50:33.224Z,98572.91
2023-01-19T18:52:59.751Z,98575.34
2023-01-19T18:55:26.387Z,98572.72
2023-01-19T18:57:53.728Z,98576.28
2023-01-19T19:00:20.571Z,98569.94
2023-01-19T19:02:47.032Z,98575.34
2023-01-19T19:05:13.416Z,98574.00
2023-01-19T19:07:39.925Z,98579.06
2023-01-19T19:10:06.868Z,98578.97
2023-01-19T19:12:33.326Z,98579.81
2023-01-19T19:14:59.785Z,98579.25
2023-01-19T19:17:26.269Z,98578.50
2023-01-19T19:19:52.830Z,98574.75
2023-01-19T19:22:19.264Z,98570.78
2023-01-19T19:24:45.713Z,98583.56
2023-01-19T19:27:14.214Z,98578.03
2023-01-19T19:29:41.241Z,98579.56
2023-01-19T19:32:07.663Z,98581.66
2023-01-19T19:34:34.106Z,98574.69
2023-01-19T19:37:01.376Z,98571.47
2023-01-19T19:39:28.653Z,98582.28
2023-01-19T19:41:55.048Z,98580.19
2023-01-19T19:44:21.438Z,98583.97
2023-01-19T19:46:48.110Z,98587.06
2023-01-19T19:49:17.631Z,98579.47
2023-01-19T19:51:44.064Z,98578.47
2023-01-19T19:54:10.477Z,98579.91
2023-01-19T19:56:36.865Z,98582.66
2023-01-19T19:59:03.551Z,98592.78
2023-01-19T20:01:33.424Z,98589.03
2023-01-19T20:04:06.196Z,98593.91
2023-01-19T20:06:38.427Z,98589.59
2023-01-19T20:09:08.929Z,98596.34
2023-01-19T20:11:36.081Z,98598.34
2023-01-19T20:14:10.371Z,98596.91
2023-01-19T20:16:37.278Z,98602.50
2023-01-19T20:19:03.849Z,98603.34
2023-01-19T20:21:32.683Z,98607.56
2023-01-19T20:24:05.682Z,98621.00
2023-01-19T20:26:34.444Z,98613.47
2023-01-19T20:29:03.322Z,98619.03
2023-01-19T20:31:31.748Z,98617.59
2023-01-19T20:34:00.161Z,98617.03
2023-01-19T20:36:26.980Z,98620.81
2023-01-19T20:38:54.394Z,98625.19
2023-01-19T20:41:22.132Z,98620.94
2023-01-19T20:43:48.958Z,98625.19
2023-01-19T20:46:15.398Z,98626.00
2023-01-19T20:48:41.896Z,98625.53
2023-01-19T20:51:10.712Z,98629.28
2023-01-19T20:53:37.645Z,98628.31
2023-01-19T20:56:11.545Z,98631.69
2023-01-19T20:58:38.284Z,98629.75
2023-01-19T21:01:18.244Z,98631.63
2023-01-19T21:03:45.066Z,98637.22
2023-01-19T21:06:12.638Z,98641.09
2023-01-19T21:08:39.145Z,98646.16
2023-01-19T21:11:05.831Z,98651.44
2023-01-19T21:13:32.667Z,98649.91
2023-01-19T21:15:59.318Z,98652.00
2023-01-19T21:18:27.843Z,98652.00
2023-01-19T21:20:55.509Z,98652.13
2023-01-19T21:23:22.114Z,98659.59
2023-01-19T21:25:56.999Z,98657.84
2023-01-19T21:28:23.912Z,98663.91
2023-01-19T21:30:51.698Z,98667.88
2023-01-19T21:33:19.145Z,98668.19
2023-01-19T21:35:56.351Z,98655.00
2023-01-19T21:38:26.958Z,98666.66
2023-01-19T21:40:54.777Z,98659.31
2023-01-19T21:43:21.704Z,98673.03
2023-01-19T21:45:48.755Z,98663.81
2023-01-19T21:48:16.348Z,98682.59
2023-01-19T21:50:42.871Z,98683.41
2023-01-19T21:53:11.213Z,98685.34
2023-01-19T21:55:43.767Z,98681.31
2023-01-19T21:58:10.160Z,98689.97
2023-01-19T22:00:58.877Z,98692.59
2023-01-19T22:03:27.177Z,98690.97
2023-01-19T22:05:54.075Z,98696.47
2023-01-19T22:08:20.484Z,98698.00
2023-01-19T22:10:46.909Z,98692.63
2023-01-19T22:13:13.308Z,98694.56
2023-01-19T22:15:39.823Z,98695.69
2023-01-19T22:18:06.212Z,98700.50
2023-01-19T22:20:32.636Z,98703.81
2023-01-19T22:22:59.159Z,98708.84
2023-01-19T22:25:27.693Z,98711.78
2023-01-19T22:27:55.131Z,98712.75
2023-01-19T22:30:21.628Z,98713.66
2023-01-19T22:32:48.097Z,98717.19
2023-01-19T22:35:15.200Z,98734.31
2023-01-19T22:37:41.976Z,98724.06
2023-01-19T22:40:08.885Z,98727.66
2023-01-19T22:42:35.316Z,98736.94
2023-01-19T22:45:01.847Z,98732.75
2023-01-19T22:47:28.237Z,98735.50
2023-01-19T22:49:54.730Z,98744.56
2023-01-19T22:52:21.133Z,98737.59
2023-01-19T22:54:47.512Z,98742.09
2023-01-19T22:57:13.914Z,98742.88
2023-01-19T22:59:40.395Z,98746.44
2023-01-19T23:02:06.897Z,98746.53
2023-01-19T23:04:33.311Z,98743.44
2023-01-19T23:06:59.748Z,98753.28
2023-01-19T23:09:26.171Z,98751.84
2023-01-19T23:11:52.979Z,98750.66
2023-01-19T23:14:21.443Z,98753.63
2023-01-19T23:16:48.256Z,98746.03
2023-01-19T23:19:16.990Z,98748.88
2023-01-19T23:21:43.905Z,98756.38
2023-01-19T23:24:10.469Z,98756.53
2023-01-19T23:26:40.279Z,98756.06
2023-01-19T23:29:11.942Z,98756.72
2023-01-19T23:31:41.934Z,98761.22
2023-01-19T23:34:09.602Z,98752.44
2023-01-19T23:36:38.096Z,98763.28
2023-01-19T23:39:13.619Z,98767.34
2023-01-19T23:41:40.016Z,98772.28
2023-01-19T23:44:06.635Z,98775.69
2023-01-19T23:46:33.053Z,98774.97
2023-01-19T23:48:59.535Z,98776.66
2023-01-19T23:51:30.758Z,98780.78
2023-01-19T23:53:58.313Z,98780.97
2023-01-19T23:56:26.030Z,98783.59
2023-01-19T23:58:57.661Z,98791.19
